LSZR/ACH METAR and TAF weather

Enter ICAO airport designator
Station Type Date Time Source
LSZR METAR 2022/01/29 09:50 UTC NOAA

LSZR 290950Z 27005KT 9999 BKN095 03/03 Q1033 NOSIG RMK E


Station Type Date Time Source
LSZR Decoded METAR 2022/01/29 09:50 UTC NOAA

Saint Gallen-Altenrhein, Switzerland (LSZR) 47-29-06N 009-33-43E
Jan 29, 2022 - 04:50 AM EST / 2022.01.29 0950 UTC
Wind: from the W (270 degrees) at 6 MPH (5 KT):0
Visibility: greater than 7 mile(s):0
Sky conditions: mostly cloudy
Temperature: 37 F (3 C)
Dew Point: 37 F (3 C)
Relative Humidity: 100%
Pressure (altimeter): 30.50 in. Hg (1033 hPa)
ob: LSZR 290950Z 27005KT 9999 BKN095 03/03 Q1033 NOSIG RMK E
cycle: 10

Station Type Date Time Source
LSZR TAF 2014/12/22 20:03 UTC NOAA

TAF
AMD LSZR 222054Z 2220/2224 CNL

Example: see airport list